RYR61LJ LEPA-LEZL
Flight info
| Callsign | RYR61LJ |
|---|---|
| Flight time | 1h 20m |
| Altitude | 40000 |
| Route | EPAMA N733 VLC M985 YES N747 BLN |
| Aircraft | B738/M-SDE3FGILRWY/SB1 |
Departure
| Time | 2026-04-21 15:11 |
|---|---|
| Airport | Palma de Mallorca Airport (LEPA) |
Arrival
| Time | 2026-04-21 16:31 |
|---|---|
| Airport | Seville Airport (LEZL) |
| Time | Latitude | Longitude | Altitude | Speed | Heading |
|---|---|---|---|---|---|
| 2026-04-21 14:57 | 39.54847 | 2.73856 | 29 ft | 0 kts | 268° |
| 2026-04-21 15:04 | 39.54847 | 2.73857 | 29 ft | 1 kts | 268° |
| 2026-04-21 15:04 | 39.54848 | 2.73888 | 29 ft | 4 kts | 268° |
| 2026-04-21 15:04 | 39.54849 | 2.73923 | 29 ft | 4 kts | 268° |
| 2026-04-21 15:05 | 39.54851 | 2.73956 | 29 ft | 4 kts | 247° |
| 2026-04-21 15:05 | 39.54884 | 2.73975 | 29 ft | 3 kts | 148° |
| 2026-04-21 15:05 | 39.54900 | 2.73962 | 29 ft | 0 kts | 148° |
| 2026-04-21 15:07 | 39.54898 | 2.73964 | 29 ft | 3 kts | 148° |
| 2026-04-21 15:07 | 39.54852 | 2.73998 | 29 ft | 10 kts | 158° |
| 2026-04-21 15:07 | 39.54780 | 2.73951 | 29 ft | 14 kts | 200° |
| 2026-04-21 15:08 | 39.54753 | 2.74049 | 29 ft | 19 kts | 58° |
| 2026-04-21 15:08 | 39.54842 | 2.74235 | 29 ft | 28 kts | 58° |
| 2026-04-21 15:08 | 39.54945 | 2.74454 | 29 ft | 28 kts | 58° |
| 2026-04-21 15:08 | 39.55043 | 2.74661 | 29 ft | 26 kts | 58° |
| 2026-04-21 15:09 | 39.55134 | 2.74854 | 29 ft | 24 kts | 58° |
| 2026-04-21 15:09 | 39.55220 | 2.75035 | 29 ft | 23 kts | 58° |
| 2026-04-21 15:09 | 39.55312 | 2.75227 | 29 ft | 27 kts | 58° |
| 2026-04-21 15:09 | 39.55413 | 2.75440 | 29 ft | 29 kts | 58° |
| 2026-04-21 15:10 | 39.55519 | 2.75664 | 29 ft | 28 kts | 58° |
| 2026-04-21 15:10 | 39.55619 | 2.75877 | 29 ft | 27 kts | 59° |
| 2026-04-21 15:10 | 39.55640 | 2.76032 | 29 ft | 19 kts | 141° |
| 2026-04-21 15:10 | 39.55522 | 2.76095 | 29 ft | 20 kts | 210° |
| 2026-04-21 15:11 | 39.55403 | 2.75869 | 29 ft | 59 kts | 238° |
| 2026-04-21 15:11 | 39.55034 | 2.75089 | 29 ft | 141 kts | 238° |
| 2026-04-21 15:11 | 39.54408 | 2.73777 | 299 ft | 188 kts | 238° |
| 2026-04-21 15:11 | 39.53752 | 2.72456 | 1780 ft | 166 kts | 238° |
| 2026-04-21 15:12 | 39.53127 | 2.71231 | 2922 ft | 162 kts | 236° |
| 2026-04-21 15:12 | 39.52718 | 2.70379 | 3296 ft | 178 kts | 239° |
| 2026-04-21 15:12 | 39.52038 | 2.68854 | 3599 ft | 210 kts | 239° |
| 2026-04-21 15:12 | 39.51257 | 2.66403 | 4015 ft | 243 kts | 264° |
| 2026-04-21 15:13 | 39.51291 | 2.64863 | 4205 ft | 263 kts | 275° |
| 2026-04-21 15:13 | 39.51506 | 2.62459 | 4940 ft | 273 kts | 276° |
| 2026-04-21 15:13 | 39.51739 | 2.60011 | 5883 ft | 274 kts | 276° |
| 2026-04-21 15:13 | 39.51965 | 2.57545 | 6799 ft | 277 kts | 276° |
| 2026-04-21 15:14 | 39.52184 | 2.55045 | 7634 ft | 282 kts | 275° |
| 2026-04-21 15:14 | 39.52397 | 2.52511 | 8515 ft | 284 kts | 275° |
| 2026-04-21 15:14 | 39.52626 | 2.49951 | 9380 ft | 287 kts | 275° |
| 2026-04-21 15:14 | 39.52831 | 2.47363 | 10227 ft | 291 kts | 275° |
| 2026-04-21 15:15 | 39.53047 | 2.44668 | 10606 ft | 313 kts | 275° |
| 2026-04-21 15:15 | 39.53256 | 2.41753 | 10851 ft | 336 kts | 275° |
| 2026-04-21 15:15 | 39.53467 | 2.38695 | 11455 ft | 345 kts | 275° |
| 2026-04-21 15:15 | 39.53689 | 2.35587 | 12277 ft | 347 kts | 275° |
| 2026-04-21 15:16 | 39.53908 | 2.32480 | 13186 ft | 346 kts | 275° |
| 2026-04-21 15:16 | 39.54129 | 2.29364 | 13937 ft | 350 kts | 275° |
| 2026-04-21 15:16 | 39.54353 | 2.26207 | 14660 ft | 354 kts | 275° |
| 2026-04-21 15:16 | 39.54579 | 2.23027 | 15383 ft | 357 kts | 275° |
| 2026-04-21 15:17 | 39.54808 | 2.19804 | 16076 ft | 360 kts | 275° |
| 2026-04-21 15:17 | 39.55036 | 2.16562 | 16786 ft | 363 kts | 275° |
| 2026-04-21 15:17 | 39.55266 | 2.13292 | 17460 ft | 366 kts | 274° |
| 2026-04-21 15:17 | 39.55497 | 2.09992 | 18102 ft | 369 kts | 274° |
| 2026-04-21 15:18 | 39.55728 | 2.06662 | 18737 ft | 373 kts | 274° |
| 2026-04-21 15:18 | 39.55961 | 2.03302 | 19363 ft | 376 kts | 274° |
| 2026-04-21 15:18 | 39.56195 | 1.99918 | 19972 ft | 379 kts | 274° |
| 2026-04-21 15:18 | 39.56431 | 1.96504 | 20539 ft | 382 kts | 274° |
| 2026-04-21 15:19 | 39.56667 | 1.93058 | 21084 ft | 386 kts | 274° |
| 2026-04-21 15:19 | 39.56904 | 1.89582 | 21651 ft | 388 kts | 274° |
| 2026-04-21 15:19 | 39.57142 | 1.86088 | 22212 ft | 390 kts | 274° |
| 2026-04-21 15:19 | 39.57380 | 1.82569 | 22692 ft | 394 kts | 274° |
| 2026-04-21 15:20 | 39.57619 | 1.79014 | 23163 ft | 398 kts | 274° |
| 2026-04-21 15:20 | 39.57859 | 1.75429 | 23646 ft | 400 kts | 274° |
| 2026-04-21 15:20 | 39.58099 | 1.71831 | 24170 ft | 402 kts | 274° |
| 2026-04-21 15:20 | 39.58340 | 1.68209 | 24605 ft | 405 kts | 274° |
| 2026-04-21 15:21 | 39.58581 | 1.64560 | 25069 ft | 407 kts | 274° |
| 2026-04-21 15:21 | 39.58821 | 1.60895 | 25528 ft | 409 kts | 274° |
| 2026-04-21 15:21 | 39.59062 | 1.57219 | 26007 ft | 410 kts | 274° |
| 2026-04-21 15:21 | 39.59299 | 1.53576 | 26436 ft | 412 kts | 274° |
| 2026-04-21 15:22 | 39.59539 | 1.49868 | 26826 ft | 414 kts | 274° |
| 2026-04-21 15:22 | 39.59780 | 1.46137 | 27201 ft | 416 kts | 274° |
| 2026-04-21 15:22 | 39.60020 | 1.42389 | 27574 ft | 418 kts | 274° |
| 2026-04-21 15:22 | 39.60252 | 1.38619 | 27939 ft | 421 kts | 273° |
| 2026-04-21 15:23 | 39.60242 | 1.34822 | 28288 ft | 422 kts | 266° |
| 2026-04-21 15:23 | 39.60035 | 1.31024 | 28663 ft | 423 kts | 265° |
| 2026-04-21 15:23 | 39.59789 | 1.27211 | 29005 ft | 425 kts | 265° |
| 2026-04-21 15:23 | 39.59540 | 1.23387 | 29348 ft | 427 kts | 265° |
| 2026-04-21 15:24 | 39.59297 | 1.19541 | 29643 ft | 429 kts | 265° |
| 2026-04-21 15:24 | 39.59064 | 1.15686 | 29950 ft | 430 kts | 265° |
| 2026-04-21 15:24 | 39.58836 | 1.11817 | 30267 ft | 431 kts | 265° |
| 2026-04-21 15:24 | 39.58612 | 1.07946 | 30683 ft | 429 kts | 265° |
| 2026-04-21 15:25 | 39.58391 | 1.04109 | 31181 ft | 425 kts | 266° |
| 2026-04-21 15:25 | 39.58172 | 1.00299 | 31608 ft | 423 kts | 266° |
| 2026-04-21 15:25 | 39.57952 | 0.96502 | 31983 ft | 422 kts | 265° |
| 2026-04-21 15:25 | 39.57732 | 0.92708 | 32338 ft | 421 kts | 265° |
| 2026-04-21 15:26 | 39.57511 | 0.88933 | 32734 ft | 419 kts | 265° |
| 2026-04-21 15:26 | 39.57289 | 0.85176 | 33102 ft | 417 kts | 265° |
| 2026-04-21 15:26 | 39.57067 | 0.81429 | 33448 ft | 416 kts | 265° |
| 2026-04-21 15:26 | 39.56844 | 0.77699 | 33805 ft | 414 kts | 265° |
| 2026-04-21 15:27 | 39.56621 | 0.73987 | 34168 ft | 412 kts | 265° |
| 2026-04-21 15:27 | 39.56398 | 0.70285 | 34474 ft | 412 kts | 265° |
| 2026-04-21 15:27 | 39.56174 | 0.66584 | 34735 ft | 412 kts | 265° |
| 2026-04-21 15:27 | 39.55948 | 0.62886 | 35023 ft | 411 kts | 265° |
| 2026-04-21 15:28 | 39.55722 | 0.59204 | 35344 ft | 409 kts | 265° |
| 2026-04-21 15:28 | 39.55497 | 0.55530 | 35604 ft | 409 kts | 265° |
| 2026-04-21 15:28 | 39.55271 | 0.51855 | 35835 ft | 409 kts | 265° |
| 2026-04-21 15:28 | 39.55044 | 0.48176 | 36096 ft | 409 kts | 265° |
| 2026-04-21 15:29 | 39.54817 | 0.44509 | 36365 ft | 408 kts | 265° |
| 2026-04-21 15:29 | 39.54589 | 0.40847 | 36570 ft | 409 kts | 265° |
| 2026-04-21 15:29 | 39.54359 | 0.37175 | 36798 ft | 408 kts | 265° |
| 2026-04-21 15:29 | 39.54130 | 0.33532 | 37172 ft | 404 kts | 265° |
| 2026-04-21 15:30 | 39.53902 | 0.29934 | 37583 ft | 398 kts | 265° |
| 2026-04-21 15:30 | 39.53674 | 0.26377 | 37889 ft | 396 kts | 265° |
| 2026-04-21 15:30 | 39.53443 | 0.22820 | 38018 ft | 397 kts | 265° |
| 2026-04-21 15:30 | 39.53209 | 0.19246 | 38132 ft | 399 kts | 265° |
| 2026-04-21 15:31 | 39.52974 | 0.15665 | 38331 ft | 398 kts | 265° |
| 2026-04-21 15:31 | 39.52738 | 0.12093 | 38548 ft | 397 kts | 264° |
| 2026-04-21 15:31 | 39.52502 | 0.08531 | 38771 ft | 396 kts | 265° |
| 2026-04-21 15:31 | 39.52267 | 0.04980 | 38930 ft | 396 kts | 264° |
| 2026-04-21 15:32 | 39.52029 | 0.01416 | 39039 ft | 398 kts | 264° |
| 2026-04-21 15:32 | 39.51790 | -0.02149 | 39203 ft | 397 kts | 264° |
| 2026-04-21 15:32 | 39.51553 | -0.05703 | 39371 ft | 396 kts | 263° |
| 2026-04-21 15:32 | 39.51256 | -0.09258 | 39443 ft | 398 kts | 262° |
| 2026-04-21 15:33 | 39.51008 | -0.12833 | 39555 ft | 399 kts | 263° |
| 2026-04-21 15:33 | 39.50787 | -0.16417 | 39658 ft | 400 kts | 263° |
| 2026-04-21 15:33 | 39.50323 | -0.23622 | 39859 ft | 402 kts | 263° |
| 2026-04-21 15:34 | 39.49827 | -0.30863 | 39885 ft | 406 kts | 263° |
| 2026-04-21 15:34 | 39.49316 | -0.38174 | 39898 ft | 410 kts | 263° |
| 2026-04-21 15:35 | 39.48550 | -0.45490 | 39882 ft | 411 kts | 252° |
| 2026-04-21 15:35 | 39.46277 | -0.52268 | 39885 ft | 412 kts | 238° |
| 2026-04-21 15:36 | 39.42881 | -0.58189 | 39881 ft | 407 kts | 233° |
| 2026-04-21 15:36 | 39.39449 | -0.63927 | 39882 ft | 401 kts | 234° |
| 2026-04-21 15:37 | 39.36072 | -0.69636 | 39888 ft | 399 kts | 234° |
| 2026-04-21 15:37 | 39.32719 | -0.75327 | 39885 ft | 397 kts | 234° |
| 2026-04-21 15:38 | 39.29378 | -0.80996 | 39897 ft | 397 kts | 234° |
| 2026-04-21 15:38 | 39.26026 | -0.86666 | 39892 ft | 398 kts | 234° |
| 2026-04-21 15:39 | 39.22652 | -0.92348 | 39902 ft | 400 kts | 233° |
| 2026-04-21 15:39 | 39.19264 | -0.98049 | 39897 ft | 402 kts | 234° |
| 2026-04-21 15:40 | 39.15855 | -1.03779 | 39901 ft | 404 kts | 234° |
| 2026-04-21 15:40 | 39.12423 | -1.09537 | 39887 ft | 406 kts | 233° |
| 2026-04-21 15:41 | 39.08979 | -1.15307 | 39896 ft | 407 kts | 233° |
| 2026-04-21 15:41 | 39.05521 | -1.21089 | 39890 ft | 408 kts | 233° |
| 2026-04-21 15:42 | 39.02060 | -1.26863 | 39887 ft | 407 kts | 233° |
| 2026-04-21 15:42 | 38.98606 | -1.32624 | 39882 ft | 406 kts | 233° |
| 2026-04-21 15:43 | 38.95166 | -1.38360 | 39873 ft | 404 kts | 233° |
| 2026-04-21 15:43 | 38.91741 | -1.44063 | 39878 ft | 402 kts | 233° |
| 2026-04-21 15:44 | 38.88335 | -1.49719 | 39873 ft | 399 kts | 233° |
| 2026-04-21 15:44 | 38.84951 | -1.55335 | 39877 ft | 397 kts | 233° |
| 2026-04-21 15:45 | 38.81581 | -1.60915 | 39876 ft | 395 kts | 233° |
| 2026-04-21 15:45 | 38.78245 | -1.66430 | 39880 ft | 393 kts | 233° |
| 2026-04-21 15:46 | 38.74895 | -1.71962 | 39881 ft | 392 kts | 233° |
| 2026-04-21 15:46 | 38.71546 | -1.77478 | 39881 ft | 392 kts | 233° |
| 2026-04-21 15:47 | 38.68170 | -1.83019 | 39882 ft | 391 kts | 233° |
| 2026-04-21 15:47 | 38.64843 | -1.88475 | 39882 ft | 391 kts | 233° |
| 2026-04-21 15:48 | 38.61490 | -1.93966 | 39878 ft | 392 kts | 233° |
| 2026-04-21 15:48 | 38.58132 | -1.99457 | 39884 ft | 392 kts | 233° |
| 2026-04-21 15:49 | 38.54767 | -2.04953 | 39883 ft | 393 kts | 233° |
| 2026-04-21 15:49 | 38.51394 | -2.10446 | 39879 ft | 393 kts | 233° |
| 2026-04-21 15:50 | 38.48016 | -2.15947 | 39878 ft | 394 kts | 233° |
| 2026-04-21 15:50 | 38.44634 | -2.21453 | 39870 ft | 395 kts | 233° |
| 2026-04-21 15:51 | 38.41242 | -2.26964 | 39866 ft | 395 kts | 233° |
| 2026-04-21 15:51 | 38.37897 | -2.32511 | 39860 ft | 393 kts | 239° |
| 2026-04-21 15:52 | 38.35596 | -2.38794 | 39863 ft | 392 kts | 252° |
| 2026-04-21 15:52 | 38.34413 | -2.45564 | 39871 ft | 392 kts | 257° |
| 2026-04-21 15:53 | 38.33364 | -2.52364 | 39881 ft | 391 kts | 257° |
| 2026-04-21 15:53 | 38.32298 | -2.59160 | 39882 ft | 391 kts | 257° |
| 2026-04-21 15:54 | 38.31216 | -2.65952 | 39884 ft | 391 kts | 257° |
| 2026-04-21 15:54 | 38.30126 | -2.72742 | 39878 ft | 392 kts | 257° |
| 2026-04-21 15:55 | 38.29026 | -2.79540 | 39878 ft | 392 kts | 256° |
| 2026-04-21 15:55 | 38.27925 | -2.86345 | 39875 ft | 394 kts | 257° |
| 2026-04-21 15:56 | 38.27005 | -2.92015 | 39888 ft | 394 kts | 256° |
| 2026-04-21 15:56 | 38.25890 | -2.98849 | 39882 ft | 395 kts | 256° |
| 2026-04-21 15:57 | 38.24768 | -3.05689 | 39877 ft | 395 kts | 256° |
| 2026-04-21 15:57 | 38.23462 | -3.13637 | 39878 ft | 395 kts | 256° |
| 2026-04-21 15:58 | 38.22515 | -3.19376 | 39883 ft | 396 kts | 256° |
| 2026-04-21 15:58 | 38.21382 | -3.26216 | 39873 ft | 395 kts | 256° |
| 2026-04-21 15:59 | 38.20244 | -3.33055 | 39880 ft | 395 kts | 256° |
| 2026-04-21 15:59 | 38.19102 | -3.39894 | 39879 ft | 396 kts | 256° |
| 2026-04-21 16:00 | 38.17956 | -3.46734 | 39878 ft | 396 kts | 256° |
| 2026-04-21 16:00 | 38.16808 | -3.53571 | 39886 ft | 395 kts | 255° |
| 2026-04-21 16:01 | 38.15662 | -3.60356 | 39887 ft | 395 kts | 255° |
| 2026-04-21 16:01 | 38.15228 | -3.63820 | 39587 ft | 405 kts | 266° |
| 2026-04-21 16:01 | 38.15302 | -3.67397 | 39226 ft | 405 kts | 268° |
| 2026-04-21 16:02 | 38.15431 | -3.70943 | 38975 ft | 395 kts | 268° |
| 2026-04-21 16:02 | 38.15561 | -3.74365 | 38924 ft | 381 kts | 268° |
| 2026-04-21 16:02 | 38.15784 | -3.81037 | 38893 ft | 374 kts | 267° |
| 2026-04-21 16:03 | 38.15964 | -3.87651 | 38863 ft | 381 kts | 267° |
| 2026-04-21 16:03 | 38.16140 | -3.94505 | 38865 ft | 389 kts | 267° |
| 2026-04-21 16:04 | 38.16307 | -4.01398 | 38858 ft | 396 kts | 267° |
| 2026-04-21 16:04 | 38.16476 | -4.08415 | 38856 ft | 399 kts | 267° |
| 2026-04-21 16:05 | 38.16644 | -4.15333 | 38824 ft | 379 kts | 267° |
| 2026-04-21 16:05 | 38.16725 | -4.18626 | 38812 ft | 368 kts | 267° |
| 2026-04-21 16:05 | 38.16799 | -4.21852 | 38848 ft | 365 kts | 266° |
| 2026-04-21 16:06 | 38.16111 | -4.28175 | 38375 ft | 362 kts | 249° |
| 2026-04-21 16:06 | 38.15268 | -4.31193 | 37513 ft | 364 kts | 248° |
| 2026-04-21 16:06 | 38.14397 | -4.34248 | 36517 ft | 370 kts | 248° |
| 2026-04-21 16:07 | 38.13505 | -4.37374 | 35157 ft | 384 kts | 248° |
| 2026-04-21 16:07 | 38.12588 | -4.40606 | 33845 ft | 394 kts | 249° |
| 2026-04-21 16:07 | 38.11648 | -4.43934 | 32438 ft | 405 kts | 249° |
| 2026-04-21 16:07 | 38.10687 | -4.47349 | 30991 ft | 416 kts | 249° |
| 2026-04-21 16:08 | 38.08710 | -4.54391 | 28083 ft | 430 kts | 249° |
| 2026-04-21 16:08 | 38.07702 | -4.57984 | 26650 ft | 433 kts | 249° |
| 2026-04-21 16:08 | 38.06688 | -4.61594 | 25245 ft | 435 kts | 249° |
| 2026-04-21 16:09 | 38.05689 | -4.65151 | 24836 ft | 415 kts | 249° |
| 2026-04-21 16:09 | 38.04744 | -4.68518 | 24487 ft | 395 kts | 249° |
| 2026-04-21 16:09 | 38.03840 | -4.71731 | 24091 ft | 379 kts | 249° |
| 2026-04-21 16:09 | 38.02966 | -4.74824 | 23689 ft | 366 kts | 249° |
| 2026-04-21 16:10 | 38.02123 | -4.77807 | 23306 ft | 354 kts | 249° |
| 2026-04-21 16:10 | 38.01307 | -4.80695 | 22933 ft | 342 kts | 248° |
| 2026-04-21 16:10 | 38.00514 | -4.83492 | 22567 ft | 332 kts | 248° |
| 2026-04-21 16:10 | 37.99745 | -4.86199 | 22217 ft | 322 kts | 248° |
| 2026-04-21 16:11 | 37.98996 | -4.88834 | 21855 ft | 313 kts | 248° |
| 2026-04-21 16:11 | 37.98267 | -4.91393 | 21532 ft | 304 kts | 248° |
| 2026-04-21 16:11 | 37.97554 | -4.93890 | 21218 ft | 299 kts | 248° |
| 2026-04-21 16:11 | 37.96860 | -4.96365 | 20888 ft | 297 kts | 249° |
| 2026-04-21 16:12 | 37.96163 | -4.98831 | 20573 ft | 297 kts | 248° |
| 2026-04-21 16:12 | 37.95459 | -5.01287 | 20234 ft | 296 kts | 248° |
| 2026-04-21 16:12 | 37.94756 | -5.03735 | 19904 ft | 295 kts | 248° |
| 2026-04-21 16:12 | 37.94055 | -5.06173 | 19578 ft | 294 kts | 248° |
| 2026-04-21 16:13 | 37.93358 | -5.08601 | 19249 ft | 293 kts | 248° |
| 2026-04-21 16:13 | 37.92662 | -5.11025 | 18927 ft | 292 kts | 248° |
| 2026-04-21 16:13 | 37.91963 | -5.13432 | 18598 ft | 291 kts | 248° |
| 2026-04-21 16:13 | 37.91274 | -5.15831 | 18268 ft | 289 kts | 248° |
| 2026-04-21 16:14 | 37.90584 | -5.18237 | 17956 ft | 292 kts | 248° |
| 2026-04-21 16:14 | 37.89891 | -5.20634 | 17616 ft | 287 kts | 247° |
| 2026-04-21 16:14 | 37.89201 | -5.23000 | 17291 ft | 287 kts | 248° |
| 2026-04-21 16:14 | 37.88544 | -5.25374 | 16968 ft | 284 kts | 249° |
| 2026-04-21 16:15 | 37.87885 | -5.27732 | 16647 ft | 284 kts | 247° |
| 2026-04-21 16:15 | 37.87157 | -5.30040 | 16333 ft | 283 kts | 247° |
| 2026-04-21 16:15 | 37.86470 | -5.32374 | 16002 ft | 284 kts | 248° |
| 2026-04-21 16:15 | 37.85803 | -5.34742 | 15694 ft | 288 kts | 248° |
| 2026-04-21 16:16 | 37.85122 | -5.37128 | 15351 ft | 288 kts | 248° |
| 2026-04-21 16:16 | 37.84421 | -5.39502 | 15017 ft | 288 kts | 246° |
| 2026-04-21 16:16 | 37.83726 | -5.41868 | 14689 ft | 287 kts | 248° |
| 2026-04-21 16:16 | 37.83048 | -5.44233 | 14369 ft | 285 kts | 248° |
| 2026-04-21 16:17 | 37.82376 | -5.46585 | 14036 ft | 284 kts | 248° |
| 2026-04-21 16:17 | 37.81703 | -5.48923 | 13716 ft | 282 kts | 248° |
| 2026-04-21 16:17 | 37.81040 | -5.51246 | 13382 ft | 278 kts | 248° |
| 2026-04-21 16:17 | 37.80376 | -5.53539 | 13066 ft | 277 kts | 247° |
| 2026-04-21 16:18 | 37.79719 | -5.55816 | 12755 ft | 275 kts | 247° |
| 2026-04-21 16:18 | 37.79057 | -5.58079 | 12441 ft | 275 kts | 247° |
| 2026-04-21 16:18 | 37.78400 | -5.60349 | 12120 ft | 276 kts | 248° |
| 2026-04-21 16:18 | 37.77755 | -5.62616 | 11804 ft | 272 kts | 246° |
| 2026-04-21 16:19 | 37.77101 | -5.64848 | 11490 ft | 270 kts | 247° |
| 2026-04-21 16:19 | 37.76447 | -5.67072 | 11182 ft | 270 kts | 246° |
| 2026-04-21 16:19 | 37.75797 | -5.69283 | 10864 ft | 268 kts | 246° |
| 2026-04-21 16:19 | 37.75140 | -5.71481 | 10549 ft | 269 kts | 246° |
| 2026-04-21 16:20 | 37.74490 | -5.73688 | 10223 ft | 267 kts | 246° |
| 2026-04-21 16:20 | 37.73846 | -5.75883 | 9965 ft | 265 kts | 246° |
| 2026-04-21 16:20 | 37.73216 | -5.78035 | 9831 ft | 258 kts | 246° |
| 2026-04-21 16:20 | 37.72599 | -5.80139 | 9523 ft | 259 kts | 246° |
| 2026-04-21 16:21 | 37.71973 | -5.82268 | 9250 ft | 258 kts | 246° |
| 2026-04-21 16:21 | 37.71347 | -5.84396 | 8960 ft | 258 kts | 246° |
| 2026-04-21 16:21 | 37.70720 | -5.86523 | 8668 ft | 258 kts | 246° |
| 2026-04-21 16:21 | 37.70094 | -5.88648 | 8364 ft | 258 kts | 246° |
| 2026-04-21 16:22 | 37.69468 | -5.90770 | 8078 ft | 258 kts | 246° |
| 2026-04-21 16:22 | 37.68844 | -5.92886 | 7814 ft | 256 kts | 246° |
| 2026-04-21 16:22 | 37.68231 | -5.94964 | 7648 ft | 251 kts | 246° |
| 2026-04-21 16:22 | 37.67621 | -5.97027 | 7385 ft | 250 kts | 246° |
| 2026-04-21 16:23 | 37.67013 | -5.99077 | 7115 ft | 249 kts | 246° |
| 2026-04-21 16:23 | 37.66400 | -6.01122 | 6844 ft | 249 kts | 244° |
| 2026-04-21 16:23 | 37.65388 | -6.02838 | 6546 ft | 244 kts | 217° |
| 2026-04-21 16:23 | 37.64004 | -6.04135 | 5992 ft | 255 kts | 213° |
| 2026-04-21 16:24 | 37.62521 | -6.05394 | 5586 ft | 256 kts | 213° |
| 2026-04-21 16:24 | 37.61063 | -6.06669 | 5191 ft | 254 kts | 213° |
| 2026-04-21 16:24 | 37.59614 | -6.07928 | 4773 ft | 253 kts | 213° |
| 2026-04-21 16:24 | 37.58172 | -6.09189 | 4310 ft | 252 kts | 214° |
| 2026-04-21 16:25 | 37.56746 | -6.10493 | 3892 ft | 254 kts | 213° |
| 2026-04-21 16:25 | 37.55306 | -6.11741 | 3724 ft | 248 kts | 214° |
| 2026-04-21 16:25 | 37.53920 | -6.12968 | 3612 ft | 241 kts | 214° |
| 2026-04-21 16:25 | 37.52543 | -6.14162 | 3468 ft | 238 kts | 208° |
| 2026-04-21 16:26 | 37.50988 | -6.14725 | 3370 ft | 231 kts | 181° |
| 2026-04-21 16:26 | 37.49403 | -6.14447 | 3165 ft | 232 kts | 164° |
| 2026-04-21 16:26 | 37.47864 | -6.13897 | 2905 ft | 226 kts | 164° |
| 2026-04-21 16:26 | 37.46376 | -6.13390 | 2689 ft | 217 kts | 165° |
| 2026-04-21 16:27 | 37.44957 | -6.12887 | 2456 ft | 207 kts | 166° |
| 2026-04-21 16:27 | 37.43588 | -6.12431 | 2222 ft | 200 kts | 165° |
| 2026-04-21 16:27 | 37.42419 | -6.11591 | 2048 ft | 193 kts | 130° |
| 2026-04-21 16:27 | 37.42012 | -6.10072 | 2012 ft | 179 kts | 99° |
| 2026-04-21 16:28 | 37.41861 | -6.08574 | 2028 ft | 170 kts | 101° |
| 2026-04-21 16:28 | 37.41745 | -6.07079 | 2005 ft | 172 kts | 92° |
| 2026-04-21 16:28 | 37.41754 | -6.05580 | 2042 ft | 169 kts | 92° |
| 2026-04-21 16:28 | 37.41750 | -6.04087 | 1996 ft | 172 kts | 95° |
| 2026-04-21 16:29 | 37.41743 | -6.03076 | 1955 ft | 173 kts | 90° |
| 2026-04-21 16:29 | 37.41776 | -6.01081 | 1658 ft | 169 kts | 92° |
| 2026-04-21 16:29 | 37.41742 | -5.99641 | 1418 ft | 163 kts | 95° |
| 2026-04-21 16:29 | 37.41773 | -5.98250 | 1240 ft | 157 kts | 92° |
| 2026-04-21 16:30 | 37.41748 | -5.96855 | 997 ft | 163 kts | 92° |
| 2026-04-21 16:30 | 37.41777 | -5.95429 | 799 ft | 162 kts | 89° |
| 2026-04-21 16:30 | 37.41791 | -5.94010 | 581 ft | 161 kts | 94° |
| 2026-04-21 16:30 | 37.41781 | -5.92611 | 386 ft | 159 kts | 91° |
| 2026-04-21 16:31 | 37.41789 | -5.91262 | 141 ft | 149 kts | 92° |
| 2026-04-21 16:31 | 37.41792 | -5.90053 | 97 ft | 121 kts | 90° |
| 2026-04-21 16:31 | 37.41794 | -5.89243 | 99 ft | 60 kts | 90° |
| 2026-04-21 16:31 | 37.41794 | -5.88865 | 103 ft | 22 kts | 90° |
| 2026-04-21 16:32 | 37.41899 | -5.88762 | 102 ft | 18 kts | 10° |
| 2026-04-21 16:32 | 37.41918 | -5.88758 | 102 ft | 0 kts | 10° |
| 2026-04-21 16:32 | 37.41935 | -5.88754 | 102 ft | 5 kts | 10° |
| 2026-04-21 16:32 | 37.41960 | -5.88753 | 102 ft | 10 kts | 351° |
| 2026-04-21 16:33 | 37.41985 | -5.88846 | 101 ft | 14 kts | 270° |
| 2026-04-21 16:33 | 37.41984 | -5.88978 | 99 ft | 16 kts | 269° |
| 2026-04-21 16:33 | 37.41983 | -5.89114 | 100 ft | 15 kts | 269° |
| 2026-04-21 16:33 | 37.41983 | -5.89245 | 99 ft | 15 kts | 270° |
| 2026-04-21 16:34 | 37.41982 | -5.89370 | 98 ft | 14 kts | 269° |
| 2026-04-21 16:34 | 37.41982 | -5.89490 | 97 ft | 13 kts | 270° |